sensor_id;sensor_type;location;lat;lon;timestamp;temperature;humidity
48162;DHT22;33950;48.154;16.316;2022-07-26T00:00:25;28.20;71.90
48162;DHT22;33950;48.154;16.316;2022-07-26T00:02:51;28.10;71.20
48162;DHT22;33950;48.154;16.316;2022-07-26T00:05:17;28.10;71.30
48162;DHT22;33950;48.154;16.316;2022-07-26T00:07:43;28.10;71.50
48162;DHT22;33950;48.154;16.316;2022-07-26T00:10:09;28.00;71.30
48162;DHT22;33950;48.154;16.316;2022-07-26T00:12:35;28.00;71.70
48162;DHT22;33950;48.154;16.316;2022-07-26T00:15:04;27.90;71.90
48162;DHT22;33950;48.154;16.316;2022-07-26T00:17:30;27.70;72.10
48162;DHT22;33950;48.154;16.316;2022-07-26T00:19:56;27.70;72.30
48162;DHT22;33950;48.154;16.316;2022-07-26T00:22:21;27.70;72.60
48162;DHT22;33950;48.154;16.316;2022-07-26T00:24:59;27.70;72.60
48162;DHT22;33950;48.154;16.316;2022-07-26T00:27:25;27.70;72.40
48162;DHT22;33950;48.154;16.316;2022-07-26T00:29:51;27.90;72.40
48162;DHT22;33950;48.154;16.316;2022-07-26T00:32:18;27.90;72.30
48162;DHT22;33950;48.154;16.316;2022-07-26T00:34:44;27.80;72.00
48162;DHT22;33950;48.154;16.316;2022-07-26T00:37:09;27.70;72.10
48162;DHT22;33950;48.154;16.316;2022-07-26T00:39:35;27.50;72.60
48162;DHT22;33950;48.154;16.316;2022-07-26T00:42:01;27.50;73.10
48162;DHT22;33950;48.154;16.316;2022-07-26T00:44:35;27.60;72.30
48162;DHT22;33950;48.154;16.316;2022-07-26T00:47:01;27.80;72.60
48162;DHT22;33950;48.154;16.316;2022-07-26T00:49:29;27.90;72.30
48162;DHT22;33950;48.154;16.316;2022-07-26T00:51:54;28.00;72.20
48162;DHT22;33950;48.154;16.316;2022-07-26T00:54:20;28.00;72.00
48162;DHT22;33950;48.154;16.316;2022-07-26T00:56:46;28.00;71.80
48162;DHT22;33950;48.154;16.316;2022-07-26T00:59:12;27.60;72.30
48162;DHT22;33950;48.154;16.316;2022-07-26T01:01:38;27.10;73.10
48162;DHT22;33950;48.154;16.316;2022-07-26T01:04:04;27.10;72.90
48162;DHT22;33950;48.154;16.316;2022-07-26T01:06:31;27.10;73.00
48162;DHT22;33950;48.154;16.316;2022-07-26T01:08:58;27.10;73.10
48162;DHT22;33950;48.154;16.316;2022-07-26T01:11:23;27.10;73.10
48162;DHT22;33950;48.154;16.316;2022-07-26T01:13:50;27.10;73.00
48162;DHT22;33950;48.154;16.316;2022-07-26T01:16:16;27.10;73.00
48162;DHT22;33950;48.154;16.316;2022-07-26T01:18:42;26.80;73.30
48162;DHT22;33950;48.154;16.316;2022-07-26T01:21:09;26.60;73.60
48162;DHT22;33950;48.154;16.316;2022-07-26T01:23:37;26.40;74.40
48162;DHT22;33950;48.154;16.316;2022-07-26T01:26:03;26.20;75.10
48162;DHT22;33950;48.154;16.316;2022-07-26T01:28:29;25.80;77.90
48162;DHT22;33950;48.154;16.316;2022-07-26T01:30:55;25.20;80.20
48162;DHT22;33950;48.154;16.316;2022-07-26T01:33:21;24.80;82.50
48162;DHT22;33950;48.154;16.316;2022-07-26T01:35:47;24.50;83.80
48162;DHT22;33950;48.154;16.316;2022-07-26T01:38:13;24.30;84.70
48162;DHT22;33950;48.154;16.316;2022-07-26T01:40:40;24.10;84.80
48162;DHT22;33950;48.154;16.316;2022-07-26T01:43:06;24.00;84.90
48162;DHT22;33950;48.154;16.316;2022-07-26T01:45:31;24.00;85.10
48162;DHT22;33950;48.154;16.316;2022-07-26T01:47:57;24.00;84.90
48162;DHT22;33950;48.154;16.316;2022-07-26T01:50:23;24.00;84.80
48162;DHT22;33950;48.154;16.316;2022-07-26T01:52:49;23.90;85.30
48162;DHT22;33950;48.154;16.316;2022-07-26T01:55:15;23.70;86.30
48162;DHT22;33950;48.154;16.316;2022-07-26T01:57:43;23.70;86.30
48162;DHT22;33950;48.154;16.316;2022-07-26T02:00:10;23.70;86.70
48162;DHT22;33950;48.154;16.316;2022-07-26T02:02:36;23.80;85.90
48162;DHT22;33950;48.154;16.316;2022-07-26T02:05:02;23.80;85.20
48162;DHT22;33950;48.154;16.316;2022-07-26T02:07:31;23.90;85.00
48162;DHT22;33950;48.154;16.316;2022-07-26T02:09:58;24.00;84.80
48162;DHT22;33950;48.154;16.316;2022-07-26T02:12:25;24.00;85.90
48162;DHT22;33950;48.154;16.316;2022-07-26T02:14:52;23.90;85.90
48162;DHT22;33950;48.154;16.316;2022-07-26T02:17:18;23.60;88.50
48162;DHT22;33950;48.154;16.316;2022-07-26T02:19:43;23.10;91.20
48162;DHT22;33950;48.154;16.316;2022-07-26T02:22:09;22.60;91.80
48162;DHT22;33950;48.154;16.316;2022-07-26T02:24:35;22.10;93.30
48162;DHT22;33950;48.154;16.316;2022-07-26T02:27:02;21.60;95.40
48162;DHT22;33950;48.154;16.316;2022-07-26T02:29:28;21.30;97.10
48162;DHT22;33950;48.154;16.316;2022-07-26T02:31:56;21.00;98.00
48162;DHT22;33950;48.154;16.316;2022-07-26T02:34:22;20.70;99.80
48162;DHT22;33950;48.154;16.316;2022-07-26T02:36:48;20.50;99.90
48162;DHT22;33950;48.154;16.316;2022-07-26T02:39:14;20.40;99.90
48162;DHT22;33950;48.154;16.316;2022-07-26T02:41:40;20.40;99.90
48162;DHT22;33950;48.154;16.316;2022-07-26T02:44:06;20.50;99.90
48162;DHT22;33950;48.154;16.316;2022-07-26T02:46:32;20.50;99.90
48162;DHT22;33950;48.154;16.316;2022-07-26T02:48:59;20.60;99.90
48162;DHT22;33950;48.154;16.316;2022-07-26T02:51:25;20.70;99.90
48162;DHT22;33950;48.154;16.316;2022-07-26T02:53:51;20.70;99.90
48162;DHT22;33950;48.154;16.316;2022-07-26T02:56:18;20.80;99.90
48162;DHT22;33950;48.154;16.316;2022-07-26T02:58:44;20.80;99.90
48162;DHT22;33950;48.154;16.316;2022-07-26T03:01:10;20.80;99.90
48162;DHT22;33950;48.154;16.316;2022-07-26T03:03:36;20.80;99.90
48162;DHT22;33950;48.154;16.316;2022-07-26T03:06:03;20.80;99.90
48162;DHT22;33950;48.154;16.316;2022-07-26T03:08:29;20.90;99.90
48162;DHT22;33950;48.154;16.316;2022-07-26T03:10:55;21.00;99.90
48162;DHT22;33950;48.154;16.316;2022-07-26T03:13:21;21.10;99.90
48162;DHT22;33950;48.154;16.316;2022-07-26T03:15:46;21.10;99.90
48162;DHT22;33950;48.154;16.316;2022-07-26T03:18:12;21.10;99.90
48162;DHT22;33950;48.154;16.316;2022-07-26T03:20:38;21.20;99.90
48162;DHT22;33950;48.154;16.316;2022-07-26T03:23:05;21.20;99.90
48162;DHT22;33950;48.154;16.316;2022-07-26T03:25:31;21.30;99.90
48162;DHT22;33950;48.154;16.316;2022-07-26T03:27:57;21.30;99.90
48162;DHT22;33950;48.154;16.316;2022-07-26T03:30:23;21.30;99.90
48162;DHT22;33950;48.154;16.316;2022-07-26T03:32:49;21.30;99.90
48162;DHT22;33950;48.154;16.316;2022-07-26T03:35:14;21.30;99.90
48162;DHT22;33950;48.154;16.316;2022-07-26T03:37:40;21.30;99.90
48162;DHT22;33950;48.154;16.316;2022-07-26T03:40:08;21.30;99.90
48162;DHT22;33950;48.154;16.316;2022-07-26T03:42:35;21.40;99.90
48162;DHT22;33950;48.154;16.316;2022-07-26T03:45:01;21.40;99.90
48162;DHT22;33950;48.154;16.316;2022-07-26T03:47:26;21.40;99.90
48162;DHT22;33950;48.154;16.316;2022-07-26T03:49:52;21.40;99.90
48162;DHT22;33950;48.154;16.316;2022-07-26T03:52:18;21.40;99.90
48162;DHT22;33950;48.154;16.316;2022-07-26T03:54:44;21.40;99.90
48162;DHT22;33950;48.154;16.316;2022-07-26T03:57:11;21.40;99.90
48162;DHT22;33950;48.154;16.316;2022-07-26T03:59:37;21.50;99.90
48162;DHT22;33950;48.154;16.316;2022-07-26T04:02:02;21.60;99.90
48162;DHT22;33950;48.154;16.316;2022-07-26T04:04:28;21.50;99.90
48162;DHT22;33950;48.154;16.316;2022-07-26T04:06:54;21.40;99.90
48162;DHT22;33950;48.154;16.316;2022-07-26T04:09:21;21.50;99.90
48162;DHT22;33950;48.154;16.316;2022-07-26T04:11:47;21.60;99.90
48162;DHT22;33950;48.154;16.316;2022-07-26T04:14:14;21.70;99.90
48162;DHT22;33950;48.154;16.316;2022-07-26T04:16:40;21.70;99.90
48162;DHT22;33950;48.154;16.316;2022-07-26T04:19:06;21.60;99.90
48162;DHT22;33950;48.154;16.316;2022-07-26T04:21:32;21.60;99.90
48162;DHT22;33950;48.154;16.316;2022-07-26T04:23:58;21.60;99.90
48162;DHT22;33950;48.154;16.316;2022-07-26T04:26:24;21.70;99.90
48162;DHT22;33950;48.154;16.316;2022-07-26T04:28:50;21.60;99.90
48162;DHT22;33950;48.154;16.316;2022-07-26T04:31:17;21.80;99.90
48162;DHT22;33950;48.154;16.316;2022-07-26T04:33:43;21.70;99.90
48162;DHT22;33950;48.154;16.316;2022-07-26T04:36:09;21.80;99.90
48162;DHT22;33950;48.154;16.316;2022-07-26T04:38:35;21.90;99.90
48162;DHT22;33950;48.154;16.316;2022-07-26T04:41:00;21.80;99.90
48162;DHT22;33950;48.154;16.316;2022-07-26T04:43:26;21.70;99.90
48162;DHT22;33950;48.154;16.316;2022-07-26T04:45:52;21.70;99.90
48162;DHT22;33950;48.154;16.316;2022-07-26T04:48:19;21.80;99.90
48162;DHT22;33950;48.154;16.316;2022-07-26T04:50:45;21.80;99.90
48162;DHT22;33950;48.154;16.316;2022-07-26T04:53:11;21.90;99.90
48162;DHT22;33950;48.154;16.316;2022-07-26T04:55:37;22.00;99.90
48162;DHT22;33950;48.154;16.316;2022-07-26T04:58:03;22.00;99.90
48162;DHT22;33950;48.154;16.316;2022-07-26T05:00:29;22.10;99.90
48162;DHT22;33950;48.154;16.316;2022-07-26T05:02:57;22.10;99.90
48162;DHT22;33950;48.154;16.316;2022-07-26T05:05:26;22.20;99.90
48162;DHT22;33950;48.154;16.316;2022-07-26T05:07:54;22.20;99.90
48162;DHT22;33950;48.154;16.316;2022-07-26T05:10:21;22.10;99.90
48162;DHT22;33950;48.154;16.316;2022-07-26T05:12:47;22.10;99.90
48162;DHT22;33950;48.154;16.316;2022-07-26T05:15:14;22.10;99.90
48162;DHT22;33950;48.154;16.316;2022-07-26T05:17:41;22.00;99.90
48162;DHT22;33950;48.154;16.316;2022-07-26T05:20:09;21.90;99.90
48162;DHT22;33950;48.154;16.316;2022-07-26T05:22:36;21.90;99.90
48162;DHT22;33950;48.154;16.316;2022-07-26T05:25:03;22.00;99.90
48162;DHT22;33950;48.154;16.316;2022-07-26T05:27:29;21.80;99.90
48162;DHT22;33950;48.154;16.316;2022-07-26T05:29:55;21.80;99.90
48162;DHT22;33950;48.154;16.316;2022-07-26T05:32:21;21.70;99.90
48162;DHT22;33950;48.154;16.316;2022-07-26T05:34:47;21.70;99.90
48162;DHT22;33950;48.154;16.316;2022-07-26T05:37:13;21.70;99.90
48162;DHT22;33950;48.154;16.316;2022-07-26T05:39:40;21.60;99.90
48162;DHT22;33950;48.154;16.316;2022-07-26T05:42:06;21.70;99.90
48162;DHT22;33950;48.154;16.316;2022-07-26T05:44:32;21.70;99.90
48162;DHT22;33950;48.154;16.316;2022-07-26T05:46:57;21.70;99.90
48162;DHT22;33950;48.154;16.316;2022-07-26T05:49:23;21.70;99.90
48162;DHT22;33950;48.154;16.316;2022-07-26T05:51:50;21.80;99.90
48162;DHT22;33950;48.154;16.316;2022-07-26T05:54:16;21.90;99.90
48162;DHT22;33950;48.154;16.316;2022-07-26T05:56:44;21.80;99.90
48162;DHT22;33950;48.154;16.316;2022-07-26T05:59:10;21.70;99.90
48162;DHT22;33950;48.154;16.316;2022-07-26T06:01:35;21.40;99.90
48162;DHT22;33950;48.154;16.316;2022-07-26T06:04:01;21.30;99.90
48162;DHT22;33950;48.154;16.316;2022-07-26T06:06:27;21.00;99.90
48162;DHT22;33950;48.154;16.316;2022-07-26T06:08:53;20.90;99.90
48162;DHT22;33950;48.154;16.316;2022-07-26T06:11:20;20.80;99.90
48162;DHT22;33950;48.154;16.316;2022-07-26T06:13:47;20.70;99.90
48162;DHT22;33950;48.154;16.316;2022-07-26T06:16:13;20.60;99.90
48162;DHT22;33950;48.154;16.316;2022-07-26T06:18:39;20.50;99.90
48162;DHT22;33950;48.154;16.316;2022-07-26T06:21:05;20.60;99.90
48162;DHT22;33950;48.154;16.316;2022-07-26T06:23:32;20.60;99.90
48162;DHT22;33950;48.154;16.316;2022-07-26T06:25:58;20.60;99.90
48162;DHT22;33950;48.154;16.316;2022-07-26T06:28:24;20.60;99.90
48162;DHT22;33950;48.154;16.316;2022-07-26T06:30:51;20.70;99.90
48162;DHT22;33950;48.154;16.316;2022-07-26T06:33:17;20.80;99.90
48162;DHT22;33950;48.154;16.316;2022-07-26T06:35:43;20.90;99.90
48162;DHT22;33950;48.154;16.316;2022-07-26T06:38:08;20.90;99.90
48162;DHT22;33950;48.154;16.316;2022-07-26T06:40:34;21.00;99.90
48162;DHT22;33950;48.154;16.316;2022-07-26T06:43:01;21.00;99.90
48162;DHT22;33950;48.154;16.316;2022-07-26T06:45:27;21.00;99.90
48162;DHT22;33950;48.154;16.316;2022-07-26T06:47:54;21.00;99.90
48162;DHT22;33950;48.154;16.316;2022-07-26T06:50:20;21.10;99.90
48162;DHT22;33950;48.154;16.316;2022-07-26T06:52:46;21.20;99.90
48162;DHT22;33950;48.154;16.316;2022-07-26T06:55:12;21.10;99.90
48162;DHT22;33950;48.154;16.316;2022-07-26T06:57:39;21.00;99.90
48162;DHT22;33950;48.154;16.316;2022-07-26T07:00:07;21.00;99.90
48162;DHT22;33950;48.154;16.316;2022-07-26T07:02:33;20.90;99.90
48162;DHT22;33950;48.154;16.316;2022-07-26T07:05:00;20.80;99.90
48162;DHT22;33950;48.154;16.316;2022-07-26T07:07:26;20.80;99.90
48162;DHT22;33950;48.154;16.316;2022-07-26T07:09:52;20.90;99.90
48162;DHT22;33950;48.154;16.316;2022-07-26T07:12:18;21.00;99.90
48162;DHT22;33950;48.154;16.316;2022-07-26T07:14:44;21.00;99.90
48162;DHT22;33950;48.154;16.316;2022-07-26T07:17:10;21.20;99.90
48162;DHT22;33950;48.154;16.316;2022-07-26T07:19:36;21.20;99.90
48162;DHT22;33950;48.154;16.316;2022-07-26T07:22:04;21.30;99.90
48162;DHT22;33950;48.154;16.316;2022-07-26T07:24:30;21.40;99.90
48162;DHT22;33950;48.154;16.316;2022-07-26T07:26:56;21.40;99.90
48162;DHT22;33950;48.154;16.316;2022-07-26T07:29:24;21.40;99.90
48162;DHT22;33950;48.154;16.316;2022-07-26T07:31:49;21.60;99.90
48162;DHT22;33950;48.154;16.316;2022-07-26T07:34:16;21.80;99.90
48162;DHT22;33950;48.154;16.316;2022-07-26T07:36:42;21.90;99.90
48162;DHT22;33950;48.154;16.316;2022-07-26T07:39:09;21.90;99.90
48162;DHT22;33950;48.154;16.316;2022-07-26T07:41:35;22.00;99.90
48162;DHT22;33950;48.154;16.316;2022-07-26T07:44:03;22.00;99.90
48162;DHT22;33950;48.154;16.316;2022-07-26T07:46:29;22.00;99.90
48162;DHT22;33950;48.154;16.316;2022-07-26T07:48:55;21.90;99.90
48162;DHT22;33950;48.154;16.316;2022-07-26T07:51:20;21.80;99.90
48162;DHT22;33950;48.154;16.316;2022-07-26T07:53:46;21.80;99.90
48162;DHT22;33950;48.154;16.316;2022-07-26T07:56:13;21.80;99.90
48162;DHT22;33950;48.154;16.316;2022-07-26T07:58:39;21.70;99.90
48162;DHT22;33950;48.154;16.316;2022-07-26T08:01:05;21.60;99.90
48162;DHT22;33950;48.154;16.316;2022-07-26T08:03:31;21.50;99.90
48162;DHT22;33950;48.154;16.316;2022-07-26T08:05:57;21.40;99.90
48162;DHT22;33950;48.154;16.316;2022-07-26T08:08:23;21.50;99.90
48162;DHT22;33950;48.154;16.316;2022-07-26T08:10:49;21.60;99.90
48162;DHT22;33950;48.154;16.316;2022-07-26T08:13:17;21.70;99.90
48162;DHT22;33950;48.154;16.316;2022-07-26T08:15:42;21.80;99.90
48162;DHT22;33950;48.154;16.316;2022-07-26T08:18:08;21.90;99.90
48162;DHT22;33950;48.154;16.316;2022-07-26T08:20:34;21.90;99.90
48162;DHT22;33950;48.154;16.316;2022-07-26T08:23:00;22.00;99.90
48162;DHT22;33950;48.154;16.316;2022-07-26T08:25:26;22.00;99.90
48162;DHT22;33950;48.154;16.316;2022-07-26T08:27:52;22.00;99.90
48162;DHT22;33950;48.154;16.316;2022-07-26T08:30:19;22.00;99.90
48162;DHT22;33950;48.154;16.316;2022-07-26T08:32:45;22.10;99.90
48162;DHT22;33950;48.154;16.316;2022-07-26T08:35:10;22.10;99.90
48162;DHT22;33950;48.154;16.316;2022-07-26T08:37:37;22.10;99.90
48162;DHT22;33950;48.154;16.316;2022-07-26T08:40:03;22.10;99.90
48162;DHT22;33950;48.154;16.316;2022-07-26T08:42:30;22.20;99.90
48162;DHT22;33950;48.154;16.316;2022-07-26T08:44:56;22.20;99.90
48162;DHT22;33950;48.154;16.316;2022-07-26T08:47:23;22.30;99.90
48162;DHT22;33950;48.154;16.316;2022-07-26T08:49:49;22.40;99.90
48162;DHT22;33950;48.154;16.316;2022-07-26T08:52:15;22.50;99.90
48162;DHT22;33950;48.154;16.316;2022-07-26T08:54:42;22.40;99.90
48162;DHT22;33950;48.154;16.316;2022-07-26T08:57:08;22.40;99.90
48162;DHT22;33950;48.154;16.316;2022-07-26T08:59:34;22.40;99.90
48162;DHT22;33950;48.154;16.316;2022-07-26T09:02:02;22.40;99.90
48162;DHT22;33950;48.154;16.316;2022-07-26T09:04:32;22.50;99.90
48162;DHT22;33950;48.154;16.316;2022-07-26T09:07:02;22.50;99.90
48162;DHT22;33950;48.154;16.316;2022-07-26T09:09:29;22.60;99.90
48162;DHT22;33950;48.154;16.316;2022-07-26T09:11:56;22.70;99.90
48162;DHT22;33950;48.154;16.316;2022-07-26T09:14:35;22.60;99.90
48162;DHT22;33950;48.154;16.316;2022-07-26T09:17:01;22.70;99.90
48162;DHT22;33950;48.154;16.316;2022-07-26T09:19:26;22.80;99.90
48162;DHT22;33950;48.154;16.316;2022-07-26T09:21:54;22.80;99.90
48162;DHT22;33950;48.154;16.316;2022-07-26T09:24:40;22.90;99.90
48162;DHT22;33950;48.154;16.316;2022-07-26T09:27:08;22.90;99.90
48162;DHT22;33950;48.154;16.316;2022-07-26T09:29:46;22.90;99.90
48162;DHT22;33950;48.154;16.316;2022-07-26T09:32:14;22.90;99.90
48162;DHT22;33950;48.154;16.316;2022-07-26T09:34:44;22.80;99.90
48162;DHT22;33950;48.154;16.316;2022-07-26T09:37:11;22.90;99.90
48162;DHT22;33950;48.154;16.316;2022-07-26T09:39:54;22.90;99.90
48162;DHT22;33950;48.154;16.316;2022-07-26T09:42:21;22.90;99.90
48162;DHT22;33950;48.154;16.316;2022-07-26T09:44:47;23.00;99.90
48162;DHT22;33950;48.154;16.316;2022-07-26T09:47:13;23.10;99.90
48162;DHT22;33950;48.154;16.316;2022-07-26T09:49:39;23.10;99.90
48162;DHT22;33950;48.154;16.316;2022-07-26T09:52:15;23.10;99.90
48162;DHT22;33950;48.154;16.316;2022-07-26T09:54:41;23.20;99.90
48162;DHT22;33950;48.154;16.316;2022-07-26T09:57:10;23.30;99.90
48162;DHT22;33950;48.154;16.316;2022-07-26T09:59:36;23.30;99.90
48162;DHT22;33950;48.154;16.316;2022-07-26T10:02:02;23.40;99.90
48162;DHT22;33950;48.154;16.316;2022-07-26T10:04:28;23.50;99.90
48162;DHT22;33950;48.154;16.316;2022-07-26T10:06:54;23.50;99.90
48162;DHT22;33950;48.154;16.316;2022-07-26T10:09:24;23.70;99.90
48162;DHT22;33950;48.154;16.316;2022-07-26T10:11:58;23.70;99.60
48162;DHT22;33950;48.154;16.316;2022-07-26T10:14:38;23.70;99.60
48162;DHT22;33950;48.154;16.316;2022-07-26T10:17:38;23.70;99.60
48162;DHT22;33950;48.154;16.316;2022-07-26T10:20:06;23.80;99.40
48162;DHT22;33950;48.154;16.316;2022-07-26T10:22:40;23.80;99.60
48162;DHT22;33950;48.154;16.316;2022-07-26T10:28:22;23.90;99.60
48162;DHT22;33950;48.154;16.316;2022-07-26T10:30:48;24.00;99.20
48162;DHT22;33950;48.154;16.316;2022-07-26T10:33:15;24.10;99.20
48162;DHT22;33950;48.154;16.316;2022-07-26T10:35:42;24.10;99.20
48162;DHT22;33950;48.154;16.316;2022-07-26T10:38:09;24.20;99.00
48162;DHT22;33950;48.154;16.316;2022-07-26T10:40:36;24.30;98.60
48162;DHT22;33950;48.154;16.316;2022-07-26T10:43:12;24.10;98.80
48162;DHT22;33950;48.154;16.316;2022-07-26T10:45:39;24.10;98.90
48162;DHT22;33950;48.154;16.316;2022-07-26T10:48:14;24.20;98.80
48162;DHT22;33950;48.154;16.316;2022-07-26T10:50:40;24.30;98.80
48162;DHT22;33950;48.154;16.316;2022-07-26T10:53:07;24.40;98.70
48162;DHT22;33950;48.154;16.316;2022-07-26T10:55:45;24.50;98.70
48162;DHT22;33950;48.154;16.316;2022-07-26T10:58:12;24.50;98.70
48162;DHT22;33950;48.154;16.316;2022-07-26T11:00:39;24.60;98.50
48162;DHT22;33950;48.154;16.316;2022-07-26T11:03:04;24.50;98.50
48162;DHT22;33950;48.154;16.316;2022-07-26T11:05:31;24.60;98.40
48162;DHT22;33950;48.154;16.316;2022-07-26T11:08:04;24.70;98.30
48162;DHT22;33950;48.154;16.316;2022-07-26T11:10:34;24.70;98.30
48162;DHT22;33950;48.154;16.316;2022-07-26T11:13:04;24.80;98.00
48162;DHT22;33950;48.154;16.316;2022-07-26T11:15:32;25.00;97.40
48162;DHT22;33950;48.154;16.316;2022-07-26T11:18:06;25.10;97.70
48162;DHT22;33950;48.154;16.316;2022-07-26T11:20:32;25.30;97.20
48162;DHT22;33950;48.154;16.316;2022-07-26T11:22:58;25.30;96.90
48162;DHT22;33950;48.154;16.316;2022-07-26T11:25:24;25.50;96.80
48162;DHT22;33950;48.154;16.316;2022-07-26T11:27:58;25.50;96.40
48162;DHT22;33950;48.154;16.316;2022-07-26T11:30:24;25.70;96.60
48162;DHT22;33950;48.154;16.316;2022-07-26T11:32:52;25.90;95.40
48162;DHT22;33950;48.154;16.316;2022-07-26T11:35:18;26.00;95.80
48162;DHT22;33950;48.154;16.316;2022-07-26T11:37:51;25.90;94.80
48162;DHT22;33950;48.154;16.316;2022-07-26T11:40:17;25.80;95.00
48162;DHT22;33950;48.154;16.316;2022-07-26T11:42:43;25.90;95.20
48162;DHT22;33950;48.154;16.316;2022-07-26T11:45:09;26.00;94.40
48162;DHT22;33950;48.154;16.316;2022-07-26T11:47:35;25.90;94.20
48162;DHT22;33950;48.154;16.316;2022-07-26T11:50:06;25.90;94.40
48162;DHT22;33950;48.154;16.316;2022-07-26T11:52:32;25.90;93.80
48162;DHT22;33950;48.154;16.316;2022-07-26T11:54:57;25.90;93.60
48162;DHT22;33950;48.154;16.316;2022-07-26T11:57:27;25.80;93.10
48162;DHT22;33950;48.154;16.316;2022-07-26T11:59:53;25.90;93.90
48162;DHT22;33950;48.154;16.316;2022-07-26T12:02:19;26.20;93.70
48162;DHT22;33950;48.154;16.316;2022-07-26T12:04:46;26.40;92.60
48162;DHT22;33950;48.154;16.316;2022-07-26T12:07:15;26.60;92.50
48162;DHT22;33950;48.154;16.316;2022-07-26T12:09:46;26.70;91.50
48162;DHT22;33950;48.154;16.316;2022-07-26T12:12:19;26.60;92.10
48162;DHT22;33950;48.154;16.316;2022-07-26T12:14:55;27.10;91.80
48162;DHT22;33950;48.154;16.316;2022-07-26T12:17:21;27.80;91.20
48162;DHT22;33950;48.154;16.316;2022-07-26T12:19:47;28.20;90.50
48162;DHT22;33950;48.154;16.316;2022-07-26T12:22:15;28.30;89.80
48162;DHT22;33950;48.154;16.316;2022-07-26T12:24:44;28.40;89.50
48162;DHT22;33950;48.154;16.316;2022-07-26T12:27:13;28.40;89.00
48162;DHT22;33950;48.154;16.316;2022-07-26T12:29:41;28.70;88.30
48162;DHT22;33950;48.154;16.316;2022-07-26T12:32:11;29.10;87.80
48162;DHT22;33950;48.154;16.316;2022-07-26T12:34:38;29.20;88.00
48162;DHT22;33950;48.154;16.316;2022-07-26T12:37:16;29.20;85.00
48162;DHT22;33950;48.154;16.316;2022-07-26T12:40:01;29.30;85.90
48162;DHT22;33950;48.154;16.316;2022-07-26T12:42:30;28.90;85.20
48162;DHT22;33950;48.154;16.316;2022-07-26T12:44:57;28.80;85.30
48162;DHT22;33950;48.154;16.316;2022-07-26T12:47:23;28.60;84.70
48162;DHT22;33950;48.154;16.316;2022-07-26T12:49:49;28.10;86.20
48162;DHT22;33950;48.154;16.316;2022-07-26T12:52:18;27.50;83.60
48162;DHT22;33950;48.154;16.316;2022-07-26T12:54:46;27.00;85.70
48162;DHT22;33950;48.154;16.316;2022-07-26T12:57:13;26.50;88.40
48162;DHT22;33950;48.154;16.316;2022-07-26T12:59:39;26.10;90.60
48162;DHT22;33950;48.154;16.316;2022-07-26T13:02:05;25.70;90.70
48162;DHT22;33950;48.154;16.316;2022-07-26T13:04:32;25.20;92.30
48162;DHT22;33950;48.154;16.316;2022-07-26T13:06:58;25.00;92.80
48162;DHT22;33950;48.154;16.316;2022-07-26T13:09:25;24.80;92.90
48162;DHT22;33950;48.154;16.316;2022-07-26T13:11:51;24.90;93.30
48162;DHT22;33950;48.154;16.316;2022-07-26T13:14:17;24.80;94.00
48162;DHT22;33950;48.154;16.316;2022-07-26T13:16:43;24.60;95.20
48162;DHT22;33950;48.154;16.316;2022-07-26T13:19:09;24.50;96.20
48162;DHT22;33950;48.154;16.316;2022-07-26T13:21:35;24.30;97.30
48162;DHT22;33950;48.154;16.316;2022-07-26T13:24:01;24.20;98.80
48162;DHT22;33950;48.154;16.316;2022-07-26T13:26:28;23.80;99.90
48162;DHT22;33950;48.154;16.316;2022-07-26T13:28:54;23.60;99.90
48162;DHT22;33950;48.154;16.316;2022-07-26T13:31:20;23.50;99.90
48162;DHT22;33950;48.154;16.316;2022-07-26T13:33:45;23.50;99.90
48162;DHT22;33950;48.154;16.316;2022-07-26T13:36:11;23.40;99.90
48162;DHT22;33950;48.154;16.316;2022-07-26T13:38:37;23.30;99.90
48162;DHT22;33950;48.154;16.316;2022-07-26T13:41:03;23.30;99.90
48162;DHT22;33950;48.154;16.316;2022-07-26T13:43:31;23.20;99.90
48162;DHT22;33950;48.154;16.316;2022-07-26T13:45:56;23.20;99.90
48162;DHT22;33950;48.154;16.316;2022-07-26T13:48:22;23.10;99.90
48162;DHT22;33950;48.154;16.316;2022-07-26T13:50:48;23.10;99.90
48162;DHT22;33950;48.154;16.316;2022-07-26T13:53:14;23.10;99.90
48162;DHT22;33950;48.154;16.316;2022-07-26T13:55:40;23.10;99.90
48162;DHT22;33950;48.154;16.316;2022-07-26T13:58:06;23.00;99.90
48162;DHT22;33950;48.154;16.316;2022-07-26T14:00:33;23.00;99.90
48162;DHT22;33950;48.154;16.316;2022-07-26T14:02:59;23.00;99.90
48162;DHT22;33950;48.154;16.316;2022-07-26T14:05:26;23.10;99.90
48162;DHT22;33950;48.154;16.316;2022-07-26T14:07:52;23.00;99.90
48162;DHT22;33950;48.154;16.316;2022-07-26T14:10:19;22.90;99.90
48162;DHT22;33950;48.154;16.316;2022-07-26T14:12:45;22.90;99.90
48162;DHT22;33950;48.154;16.316;2022-07-26T14:15:12;22.80;99.90
48162;DHT22;33950;48.154;16.316;2022-07-26T14:17:39;22.70;99.90
48162;DHT22;33950;48.154;16.316;2022-07-26T14:20:06;22.70;99.90
48162;DHT22;33950;48.154;16.316;2022-07-26T14:22:32;22.80;99.90
48162;DHT22;33950;48.154;16.316;2022-07-26T14:24:58;22.70;99.90
48162;DHT22;33950;48.154;16.316;2022-07-26T14:27:23;22.60;99.90
48162;DHT22;33950;48.154;16.316;2022-07-26T14:29:49;22.50;99.90
48162;DHT22;33950;48.154;16.316;2022-07-26T14:32:15;22.50;99.90
48162;DHT22;33950;48.154;16.316;2022-07-26T14:34:42;22.40;99.90
48162;DHT22;33950;48.154;16.316;2022-07-26T14:37:08;22.40;99.90
48162;DHT22;33950;48.154;16.316;2022-07-26T14:39:34;22.40;99.90
48162;DHT22;33950;48.154;16.316;2022-07-26T14:42:00;22.50;99.90
48162;DHT22;33950;48.154;16.316;2022-07-26T14:44:26;22.50;99.90
48162;DHT22;33950;48.154;16.316;2022-07-26T14:46:53;22.40;99.90
48162;DHT22;33950;48.154;16.316;2022-07-26T14:49:19;22.50;99.90
48162;DHT22;33950;48.154;16.316;2022-07-26T14:51:46;22.50;99.90
48162;DHT22;33950;48.154;16.316;2022-07-26T14:54:12;22.50;99.90
48162;DHT22;33950;48.154;16.316;2022-07-26T14:56:38;22.60;99.90
48162;DHT22;33950;48.154;16.316;2022-07-26T14:59:04;22.60;99.90
48162;DHT22;33950;48.154;16.316;2022-07-26T15:01:29;22.60;99.90
48162;DHT22;33950;48.154;16.316;2022-07-26T15:03:56;22.70;99.90
48162;DHT22;33950;48.154;16.316;2022-07-26T15:06:22;22.50;99.90
48162;DHT22;33950;48.154;16.316;2022-07-26T15:08:49;22.50;99.90
48162;DHT22;33950;48.154;16.316;2022-07-26T15:11:15;22.40;99.90
48162;DHT22;33950;48.154;16.316;2022-07-26T15:13:41;22.20;99.90
48162;DHT22;33950;48.154;16.316;2022-07-26T15:16:07;22.10;99.90